Time;durP1;ratioP1;P1;durP2;ratioP2;P2;SDS_P1;SDS_P2;PMS_P1;PMS_P2;Temp;Humidity;BMP_temperature;BMP_pressure;BME280_temperature;BME280_humidity;BME280_pressure;Samples;Min_cycle;Max_cycle;Signal;HPM_P1;HPM_P2
2023/08/25 00:01:39;;;;;;;5.90;4.43;;;;;;;23.79;71.20;97835.56;5050473;28;20024;-71
2023/08/25 00:04:05;;;;;;;6.38;5.35;;;;;;;23.74;71.28;97833.03;5050336;28;20166;-72
2023/08/25 00:06:30;;;;;;;8.50;5.22;;;;;;;23.55;71.63;97808.78;5069699;28;20071;-72
2023/08/25 00:08:56;;;;;;;6.80;4.78;;;;;;;23.43;71.98;97794.22;5052880;28;20037;-72
2023/08/25 00:11:21;;;;;;;6.38;5.13;;;;;;;23.36;72.08;97779.06;5052937;28;20075;-71
2023/08/25 00:13:46;;;;;;;6.03;4.43;;;;;;;23.45;72.53;97809.22;5052827;28;20119;-71
2023/08/25 00:16:12;;;;;;;8.70;4.72;;;;;;;23.44;72.10;97795.81;5052899;28;20406;-70
2023/08/25 00:18:37;;;;;;;11.50;4.53;;;;;;;23.34;72.66;97797.81;5054333;28;20392;-70
2023/08/25 00:21:03;;;;;;;9.88;5.32;;;;;;;23.19;72.92;97779.19;5053434;28;20043;-69
2023/08/25 00:23:28;;;;;;;11.20;5.45;;;;;;;23.13;72.83;97769.53;5019815;28;20033;-71
2023/08/25 00:25:54;;;;;;;7.40;5.20;;;;;;;23.17;73.40;97797.97;5053012;28;20033;-70
2023/08/25 00:28:20;;;;;;;8.25;5.00;;;;;;;23.08;73.60;97799.94;5053166;28;20443;-70
2023/08/25 00:30:47;;;;;;;7.95;5.25;;;;;;;22.93;73.74;97784.06;5036646;28;20113;-70
2023/08/25 00:33:13;;;;;;;7.35;5.07;;;;;;;22.91;74.06;97775.38;5036885;28;20037;-70
2023/08/25 00:35:40;;;;;;;7.60;5.13;;;;;;;22.92;73.91;97774.22;5036908;28;20018;-70
2023/08/25 00:38:06;;;;;;;8.73;5.03;;;;;;;22.89;74.34;97780.41;5063077;28;20028;-70
2023/08/25 00:40:36;;;;;;;9.07;5.28;;;;;;;23.02;74.26;97779.31;5052305;28;20025;-70
2023/08/25 00:43:01;;;;;;;8.63;4.70;;;;;;;22.83;74.65;97781.72;5035476;28;20638;-70
2023/08/25 00:45:26;;;;;;;7.63;4.97;;;;;;;22.77;74.77;97766.59;5020007;28;20042;-72
2023/08/25 00:47:52;;;;;;;9.25;5.15;;;;;;;22.76;74.94;97786.94;5046012;28;20127;-72
2023/08/25 00:50:17;;;;;;;9.98;5.10;;;;;;;22.65;75.55;97769.25;5035639;28;20033;-71
2023/08/25 00:52:43;;;;;;;6.38;5.30;;;;;;;22.68;75.50;97785.06;5052831;28;20068;-72
2023/08/25 00:55:09;;;;;;;11.23;5.45;;;;;;;22.71;75.58;97781.63;5036282;28;20064;-70
2023/08/25 00:57:35;;;;;;;9.70;5.40;;;;;;;22.69;75.72;97781.16;5035901;28;20545;-70
2023/08/25 01:00:01;;;;;;;7.47;4.70;;;;;;;22.66;75.23;97773.63;5035953;28;20067;-71
2023/08/25 01:02:26;;;;;;;6.97;4.72;;;;;;;22.59;75.82;97784.28;5035334;28;20036;-71
2023/08/25 01:04:51;;;;;;;9.13;5.15;;;;;;;22.58;75.96;97797.19;5051408;28;20040;-72
2023/08/25 01:07:17;;;;;;;5.55;4.55;;;;;;;22.49;76.06;97781.91;5051637;28;20052;-73
2023/08/25 01:09:43;;;;;;;7.07;4.90;;;;;;;22.50;75.74;97791.75;5035049;28;20107;-70
2023/08/25 01:12:20;;;;;;;7.10;5.05;;;;;;;22.47;76.24;97792.41;5035336;28;20033;-70
2023/08/25 01:15:00;;;;;;;6.82;4.75;;;;;;;22.33;75.93;97762.47;5067417;28;20044;-70
2023/08/25 01:17:43;;;;;;;6.45;4.90;;;;;;;22.34;76.49;97790.69;5069678;28;20048;-71
2023/08/25 01:20:09;;;;;;;7.57;4.95;;;;;;;22.27;76.97;97791.22;5068474;28;20111;-68
2023/08/25 01:23:07;;;;;;;6.53;4.60;;;;;;;22.26;76.31;97795.13;5068039;28;20020;-68
2023/08/25 01:25:33;;;;;;;6.93;4.13;;;;;;;22.22;76.90;97801.59;5067935;28;20083;-68
2023/08/25 01:28:04;;;;;;;7.78;4.68;;;;;;;22.27;76.74;97806.88;5051256;28;20036;-68
2023/08/25 01:30:35;;;;;;;8.02;4.30;;;;;;;22.17;77.27;97796.28;5051275;28;20403;-71
2023/08/25 01:33:04;;;;;;;8.65;4.22;;;;;;;22.24;76.88;97796.56;5034941;28;20056;-71
2023/08/25 01:35:49;;;;;;;8.00;4.40;;;;;;;22.19;77.11;97807.72;5051080;28;20037;-69
2023/08/25 05:30:46;;;;;;;5.22;3.60;;;;;;;21.63;77.40;97715.63;4879064;29;20575;-73
2023/08/25 05:33:12;;;;;;;4.65;3.65;;;;;;;21.66;77.40;97715.78;4892155;29;20041;-74
2023/08/25 05:35:52;;;;;;;6.68;3.83;;;;;;;21.76;77.32;97725.56;4849905;29;20044;-73
2023/08/25 05:38:17;;;;;;;4.97;3.30;;;;;;;21.76;77.31;97712.69;4892030;29;20067;-73
2023/08/25 05:40:43;;;;;;;6.40;3.90;;;;;;;21.87;77.16;97730.41;4878508;29;20029;-74
2023/08/25 05:43:08;;;;;;;7.20;3.88;;;;;;;21.86;77.10;97726.06;4877141;29;20063;-73
2023/08/25 05:45:34;;;;;;;7.22;4.07;;;;;;;21.97;76.85;97727.31;4874029;29;20025;-71
2023/08/25 05:48:01;;;;;;;6.40;3.85;;;;;;;21.98;76.78;97712.44;4892330;29;20043;-70
2023/08/25 05:50:27;;;;;;;7.43;3.67;;;;;;;22.14;76.47;97723.69;4892336;29;20124;-71
2023/08/25 05:52:53;;;;;;;8.77;3.72;;;;;;;22.19;76.25;97717.19;4877901;29;20060;-71
2023/08/25 05:55:19;;;;;;;8.00;3.75;;;;;;;22.19;75.94;97706.22;4875181;29;20060;-72
2023/08/25 05:57:44;;;;;;;6.15;3.80;;;;;;;22.33;75.99;97712.28;4890716;29;20059;-71
2023/08/25 06:00:11;;;;;;;7.30;4.13;;;;;;;22.35;75.36;97699.03;4876376;29;20556;-71
2023/08/25 06:02:40;;;;;;;5.05;3.53;;;;;;;22.52;75.11;97709.91;4882018;29;20112;-71
2023/08/25 06:05:06;;;;;;;7.55;3.80;;;;;;;22.74;74.80;97719.75;4876160;29;20048;-71
2023/08/25 06:07:31;;;;;;;6.43;3.80;;;;;;;22.84;74.62;97717.44;4876121;29;20052;-71
2023/08/25 06:09:56;;;;;;;6.10;3.85;;;;;;;22.98;73.86;97706.16;4874931;29;20025;-71
2023/08/25 06:12:22;;;;;;;4.80;3.22;;;;;;;22.96;73.61;97697.47;4877698;29;20078;-72
2023/08/25 06:14:47;;;;;;;5.95;3.53;;;;;;;23.11;73.22;97708.63;4877899;29;20029;-71
2023/08/25 06:17:12;;;;;;;8.95;3.60;;;;;;;23.24;72.62;97702.00;4878072;29;20496;-71
2023/08/25 06:19:38;;;;;;;7.70;3.53;;;;;;;23.31;72.12;97704.25;4877820;29;20506;-71
2023/08/25 06:22:03;;;;;;;6.60;3.80;;;;;;;23.35;71.79;97674.97;4891818;29;20053;-71
2023/08/25 06:24:29;;;;;;;6.07;3.40;;;;;;;23.57;71.30;97690.25;4877659;29;20037;-71
2023/08/25 06:26:54;;;;;;;5.90;3.38;;;;;;;23.70;71.01;97695.41;4876546;29;20048;-71
2023/08/25 06:29:20;;;;;;;4.40;3.50;;;;;;;;;;4891966;29;20108;-72
2023/08/25 06:31:46;;;;;;;4.97;3.35;;;;;;;23.69;70.70;97693.81;4877406;29;20071;-72
2023/08/25 06:34:12;;;;;;;6.10;3.40;;;;;;;23.79;70.26;97687.06;4877756;29;20049;-68
2023/08/25 06:36:37;;;;;;;8.65;3.65;;;;;;;23.95;70.13;97690.72;4877434;29;20044;-70
2023/08/25 06:39:03;;;;;;;7.43;3.33;;;;;;;23.99;69.43;97708.97;4876489;29;20025;-73
2023/08/25 06:41:29;;;;;;;5.82;3.42;;;;;;;24.10;69.36;97703.84;4884514;29;20487;-74
2023/08/25 06:43:59;;;;;;;6.60;3.60;;;;;;;24.27;68.97;97700.06;4858881;29;20029;-72
2023/08/25 06:46:25;;;;;;;5.35;3.50;;;;;;;24.31;68.87;97682.50;4869806;29;20048;-73
2023/08/25 06:48:50;;;;;;;5.35;3.63;;;;;;;24.52;68.95;97705.19;4887384;29;20025;-73
2023/08/25 06:51:15;;;;;;;5.85;3.47;;;;;;;24.80;68.03;97704.47;4868505;29;20124;-73
2023/08/25 06:53:41;;;;;;;6.22;3.80;;;;;;;24.94;66.54;97711.19;4887176;29;20045;-70
2023/08/25 06:56:06;;;;;;;6.05;3.58;;;;;;;25.06;66.94;97677.28;4896440;29;20048;-72
2023/08/25 06:58:32;;;;;;;6.43;3.30;;;;;;;25.33;65.57;97707.59;4878180;29;20022;-71
2023/08/25 07:00:57;;;;;;;5.30;3.53;;;;;;;25.52;65.43;97715.22;4880423;29;20045;-71
2023/08/25 07:03:22;;;;;;;6.55;4.07;;;;;;;25.52;64.35;97701.44;4885187;29;20594;-71
2023/08/25 07:05:49;;;;;;;5.85;3.42;;;;;;;25.66;64.09;97714.78;4880693;29;20052;-71
2023/08/25 07:08:14;;;;;;;3.97;3.17;;;;;;;25.57;63.53;97709.44;4891513;29;20088;-69
2023/08/25 07:10:40;;;;;;;7.75;3.78;;;;;;;25.57;64.45;97712.22;4877183;29;20029;-72
2023/08/25 07:13:06;;;;;;;7.68;3.33;;;;;;;25.48;63.92;97717.09;4892860;29;20037;-69
2023/08/25 07:15:31;;;;;;;6.32;3.65;;;;;;;25.26;63.61;97725.88;4881062;29;20108;-71
2023/08/25 07:17:57;;;;;;;7.18;3.72;;;;;;;25.14;64.50;97731.44;4881007;29;20033;-71
2023/08/25 07:20:22;;;;;;;7.35;3.88;;;;;;;25.15;64.18;97727.53;4895179;29;20040;-71
2023/08/25 07:22:48;;;;;;;4.72;3.47;;;;;;;25.04;64.70;97726.44;4880607;29;20057;-73
2023/08/25 07:25:13;;;;;;;5.93;4.10;;;;;;;24.95;64.40;97734.06;4895169;29;20076;-73
2023/08/25 07:27:39;;;;;;;4.25;3.65;;;;;;;24.90;64.79;97726.03;4895201;29;20056;-73
2023/08/25 07:30:06;;;;;;;8.43;3.40;;;;;;;25.05;64.43;97725.28;4895007;29;20060;-73
2023/08/25 07:32:31;;;;;;;5.93;3.50;;;;;;;25.02;64.49;97717.72;4880528;29;20479;-73
2023/08/25 07:34:57;;;;;;;7.78;3.83;;;;;;;25.16;64.40;97707.09;4895046;29;20044;-73
2023/08/25 07:37:22;;;;;;;6.20;3.35;;;;;;;25.30;63.85;97719.31;4876425;29;20252;-74
2023/08/25 07:39:53;;;;;;;5.55;3.53;;;;;;;25.29;64.26;97708.66;4875140;29;20047;-69
2023/08/25 07:42:19;;;;;;;4.65;3.53;;;;;;;25.40;64.41;97709.72;4879177;29;20185;-71
2023/08/25 07:44:44;;;;;;;5.35;3.47;;;;;;;25.48;64.29;97702.50;4879375;29;20037;-70
2023/08/25 07:47:09;;;;;;;4.70;3.67;;;;;;;25.19;64.13;97722.94;4894996;29;20044;-69
2023/08/25 07:49:35;;;;;;;4.65;3.53;;;;;;;25.08;65.07;97721.81;4882106;29;20468;-70
2023/08/25 07:52:00;;;;;;;4.60;3.60;;;;;;;24.89;65.11;97729.91;4887394;29;20044;-70
2023/08/25 07:54:27;;;;;;;4.90;3.53;;;;;;;24.76;65.48;97720.91;4888875;29;20053;-69
2023/08/25 07:56:52;;;;;;;6.47;3.95;;;;;;;24.90;65.90;97726.03;4883351;29;20443;-69
2023/08/25 07:59:17;;;;;;;6.30;3.75;;;;;;;24.86;66.23;97734.16;4882113;29;20125;-69
2023/08/25 08:01:43;;;;;;;6.13;3.83;;;;;;;24.80;65.76;97751.28;4893991;29;20037;-71
2023/08/25 08:04:08;;;;;;;4.32;3.70;;;;;;;24.74;66.45;97767.22;4877638;29;20523;-70
2023/08/25 08:06:34;;;;;;;4.47;3.47;;;;;;;24.67;66.11;97778.81;4878768;29;20045;-72
2023/08/25 08:09:00;;;;;;;6.00;3.45;;;;;;;24.56;66.50;97787.91;4893972;29;20125;-70
2023/08/25 08:11:25;;;;;;;7.13;3.67;;;;;;;24.53;66.42;97822.44;4877844;29;20037;-70
2023/08/25 08:13:51;;;;;;;5.43;3.97;;;;;;;24.53;66.61;97840.91;4878537;29;20088;-70
2023/08/25 08:16:16;;;;;;;7.13;4.03;;;;;;;24.36;67.50;97850.22;4861897;29;20064;-73
2023/08/25 08:18:41;;;;;;;5.57;4.15;;;;;;;24.28;67.82;97864.06;4878762;29;20029;-71
2023/08/25 08:21:07;;;;;;;5.57;3.70;;;;;;;24.23;67.75;97872.53;4894200;29;20033;-72
2023/08/25 08:23:32;;;;;;;11.18;3.95;;;;;;;24.28;67.49;97897.91;4879546;29;20164;-73
2023/08/25 08:25:58;;;;;;;6.53;3.72;;;;;;;24.15;68.24;97910.03;4893499;29;20048;-71
2023/08/25 08:28:23;;;;;;;7.55;4.00;;;;;;;24.02;69.08;97916.59;4894061;29;20036;-71
2023/08/25 08:30:49;;;;;;;6.30;3.78;;;;;;;23.64;69.51;97915.97;4894470;29;20750;-72
2023/08/25 08:33:14;;;;;;;6.60;3.97;;;;;;;23.52;70.50;97924.16;4878414;29;20029;-70
2023/08/25 08:35:40;;;;;;;6.35;3.70;;;;;;;23.47;70.59;97935.34;4890903;29;20483;-70
2023/08/25 08:38:05;;;;;;;7.00;4.13;;;;;;;23.25;71.93;97915.25;4877423;29;20072;-73
2023/08/25 08:40:31;;;;;;;6.75;3.80;;;;;;;22.90;72.34;97913.81;4879905;29;20068;-72
2023/08/25 08:43:02;;;;;;;7.43;3.70;;;;;;;22.78;72.07;97916.47;4892224;29;20081;-70
2023/08/25 08:45:32;;;;;;;8.05;3.65;;;;;;;22.61;72.73;97902.84;4892817;29;20492;-72
2023/08/25 08:48:00;;;;;;;5.65;3.65;;;;;;;22.48;73.27;97923.81;4893000;29;20040;-72
2023/08/25 08:50:25;;;;;;;5.57;3.60;;;;;;;22.27;73.98;97905.66;4893792;29;20048;-72
2023/08/25 08:52:51;;;;;;;10.63;3.65;;;;;;;22.25;73.83;97927.13;4893485;29;20033;-72
2023/08/25 08:55:17;;;;;;;7.03;3.67;;;;;;;22.19;73.97;97895.50;4893871;29;20037;-72
2023/08/25 08:57:43;;;;;;;10.10;4.78;;;;;;;22.25;75.37;97883.22;4879360;29;20037;-72
2023/08/25 09:00:12;;;;;;;8.35;4.35;;;;;;;22.33;75.55;97854.97;4893353;29;20028;-71
2023/08/25 09:02:39;;;;;;;5.95;4.15;;;;;;;22.51;75.92;97851.00;4880672;29;20045;-72
2023/08/25 09:05:05;;;;;;;7.90;4.15;;;;;;;22.59;76.18;97831.72;4882849;29;20029;-73
2023/08/25 09:07:32;;;;;;;8.63;4.38;;;;;;;22.68;76.31;97823.50;4877411;29;20052;-70
2023/08/25 09:09:59;;;;;;;6.18;4.57;;;;;;;22.68;77.25;97824.28;4893134;29;20032;-72
2023/08/25 09:12:24;;;;;;;7.32;4.80;;;;;;;22.69;77.40;97825.91;4877377;29;20470;-72
2023/08/25 09:14:50;;;;;;;8.30;4.60;;;;;;;22.84;77.22;97819.03;4893360;29;20033;-73
2023/08/25 09:17:15;;;;;;;6.53;4.63;;;;;;;22.85;78.19;97795.13;4878747;29;20089;-73
2023/08/25 09:19:41;;;;;;;6.45;4.97;;;;;;;22.88;78.57;97775.22;4878917;29;20060;-72
2023/08/25 09:22:11;;;;;;;5.55;4.22;;;;;;;22.98;78.27;97759.16;4892983;29;20041;-73
2023/08/25 09:24:37;;;;;;;6.80;4.40;;;;;;;22.96;78.04;97736.72;4878804;29;20091;-72
2023/08/25 09:27:02;;;;;;;6.95;4.35;;;;;;;23.11;77.63;97722.34;4893622;29;20488;-73
2023/08/25 09:29:39;;;;;;;5.38;4.35;;;;;;;23.32;76.66;97714.88;4883410;29;20039;-71
2023/08/25 09:32:05;;;;;;;4.43;4.03;;;;;;;23.45;76.44;97703.97;4899190;29;20037;-72
2023/08/25 09:34:31;;;;;;;5.97;4.07;;;;;;;23.56;75.64;97694.94;4879075;29;20048;-72
2023/08/25 09:36:56;;;;;;;5.43;4.63;;;;;;;23.94;75.27;97727.66;4876917;29;20041;-73
2023/08/25 09:39:23;;;;;;;6.03;4.47;;;;;;;23.96;74.35;97739.13;4878902;29;20033;-73
2023/08/25 09:41:49;;;;;;;6.05;4.20;;;;;;;23.89;75.08;97758.94;4898710;29;20100;-73
2023/08/25 09:44:15;;;;;;;7.15;4.90;;;;;;;23.54;77.06;97789.91;4877159;29;20024;-72
2023/08/25 09:46:41;;;;;;;7.88;5.00;;;;;;;23.33;77.77;97796.19;4877299;29;20116;-73
2023/08/25 09:49:08;;;;;;;8.60;5.18;;;;;;;23.24;78.44;97780.94;4878388;29;20505;-73
2023/08/25 09:51:35;;;;;;;7.20;4.68;;;;;;;23.27;78.75;97770.06;4892342;29;20052;-73
2023/08/25 09:54:09;;;;;;;7.18;5.18;;;;;;;23.30;77.62;97763.88;4892648;29;20036;-73
2023/08/25 09:56:36;;;;;;;6.97;5.00;;;;;;;23.19;76.95;97762.72;4892413;29;20037;-73
2023/08/25 09:59:05;;;;;;;8.38;5.15;;;;;;;23.29;77.65;97805.47;4874075;29;20025;-73
2023/08/25 10:01:32;;;;;;;8.73;4.90;;;;;;;23.11;77.81;97820.44;4876381;29;20053;-73
2023/08/25 10:03:58;;;;;;;8.48;5.60;;;;;;;23.24;78.52;97880.63;4889446;29;20111;-73
2023/08/25 10:06:24;;;;;;;7.97;5.55;;;;;;;23.14;79.84;97886.53;4877139;29;20511;-73
2023/08/25 10:08:49;;;;;;;9.65;5.57;;;;;;;23.16;80.16;97900.75;4878129;29;20437;-73
2023/08/25 10:11:16;;;;;;;9.77;5.68;;;;;;;23.18;79.78;97895.72;4876369;29;20497;-72
2023/08/25 10:13:42;;;;;;;9.80;5.72;;;;;;;23.21;79.81;97862.09;4892198;29;20029;-73
2023/08/25 10:16:09;;;;;;;10.60;6.00;;;;;;;23.35;79.42;97815.94;4876846;29;20048;-73
2023/08/25 10:18:39;;;;;;;10.27;6.05;;;;;;;23.53;77.86;97854.25;4892407;29;20029;-72
2023/08/25 10:21:06;;;;;;;8.70;5.72;;;;;;;23.64;78.05;97859.00;4891894;29;20119;-72
2023/08/25 10:23:33;;;;;;;8.82;5.45;;;;;;;23.56;78.21;97848.91;4892009;29;20062;-75
2023/08/25 10:25:58;;;;;;;10.43;5.45;;;;;;;23.65;77.62;97870.81;4892091;29;20040;-75
2023/08/25 10:28:24;;;;;;;9.25;5.38;;;;;;;23.79;77.47;97865.84;4891878;29;20415;-76
2023/08/25 10:30:50;;;;;;;8.48;5.93;;;;;;;23.80;77.13;97865.50;4876491;29;20078;-76
2023/08/25 10:33:16;;;;;;;8.02;5.40;;;;;;;23.99;77.13;97862.25;4860750;29;20029;-76
2023/08/25 10:35:44;;;;;;;9.57;5.40;;;;;;;24.09;76.53;97853.56;4891987;29;20036;-75
2023/08/25 10:38:29;;;;;;;7.53;5.68;;;;;;;24.14;76.29;97847.84;4877536;29;20037;-76
2023/08/25 10:40:56;;;;;;;9.10;5.63;;;;;;;24.23;75.96;97834.81;4878883;29;20049;-73
2023/08/25 10:43:30;;;;;;;8.13;5.78;;;;;;;24.37;76.18;97818.75;4876202;29;20068;-76
2023/08/25 10:45:56;;;;;;;9.50;5.45;;;;;;;24.35;75.64;97782.50;4876285;29;20040;-76
2023/08/25 10:48:25;;;;;;;7.85;4.95;;;;;;;24.49;75.00;97805.00;4875542;29;20033;-74
2023/08/25 10:51:06;;;;;;;8.70;5.25;;;;;;;24.46;74.22;97786.41;4876188;29;20049;-76
2023/08/25 10:53:45;;;;;;;10.90;4.93;;;;;;;24.60;73.82;97778.59;4876361;29;20041;-76
2023/08/25 10:56:22;;;;;;;7.82;4.93;;;;;;;24.77;73.58;97787.78;4888243;29;20089;-76
2023/08/25 10:58:58;;;;;;;6.93;4.65;;;;;;;24.87;73.34;97781.81;4876196;29;20064;-73
2023/08/25 11:01:30;;;;;;;5.72;4.78;;;;;;;24.91;72.67;97783.53;4877172;29;20055;-74
2023/08/25 11:04:13;;;;;;;7.95;5.20;;;;;;;25.13;72.02;97796.00;4903750;29;20561;-75
2023/08/25 11:06:49;;;;;;;7.72;4.68;;;;;;;25.27;72.21;97775.19;4880843;29;20111;-71
2023/08/25 11:09:17;;;;;;;7.10;5.30;;;;;;;25.48;71.57;97761.22;4875756;29;20048;-74
2023/08/25 11:11:44;;;;;;;7.10;4.50;;;;;;;25.50;71.05;97749.81;4877042;29;20039;-74
2023/08/25 11:14:10;;;;;;;9.38;5.25;;;;;;;25.87;70.05;97752.03;4891680;29;20041;-74
2023/08/25 11:16:38;;;;;;;7.45;4.97;;;;;;;25.95;69.86;97734.47;4891575;29;20044;-73
2023/08/25 11:19:04;;;;;;;8.55;4.68;;;;;;;26.24;69.54;97751.78;4860446;29;20044;-74
2023/08/25 11:21:29;;;;;;;5.18;4.10;;;;;;;26.08;68.77;97736.00;4876971;29;20050;-74
2023/08/25 11:23:56;;;;;;;5.28;4.10;;;;;;;26.18;68.12;97747.69;4891210;29;20465;-74
2023/08/25 11:26:21;;;;;;;6.30;4.32;;;;;;;26.09;67.70;97751.41;4877097;29;20039;-72
2023/08/25 11:28:48;;;;;;;6.43;4.63;;;;;;;25.85;68.20;97740.53;4891401;29;20037;-74
2023/08/25 11:31:14;;;;;;;6.93;4.07;;;;;;;25.87;67.43;97760.31;4881320;29;20683;-72
2023/08/25 11:33:40;;;;;;;5.55;3.78;;;;;;;25.65;67.84;97769.16;4889011;29;20040;-72
2023/08/25 11:36:05;;;;;;;5.88;4.03;;;;;;;25.47;68.00;97789.13;4860394;29;20128;-73
2023/08/25 11:38:31;;;;;;;6.13;4.13;;;;;;;25.43;68.17;97794.53;4891281;29;20048;-73
2023/08/25 11:40:57;;;;;;;7.40;4.05;;;;;;;25.45;68.17;97756.41;4875647;29;20491;-74
2023/08/25 11:43:36;;;;;;;6.32;3.90;;;;;;;25.45;68.75;97753.63;4876998;29;20041;-73
2023/08/25 11:46:05;;;;;;;7.40;4.20;;;;;;;25.40;69.53;97746.38;4875371;29;20479;-73
2023/08/25 11:48:32;;;;;;;8.20;4.50;;;;;;;25.16;69.68;97737.41;4872398;29;20044;-73
2023/08/25 11:50:57;;;;;;;5.60;4.22;;;;;;;25.12;69.85;97750.28;4874024;29;20045;-73
2023/08/25 11:53:22;;;;;;;5.47;4.65;;;;;;;24.99;70.56;97762.50;4875431;29;20025;-72
2023/08/25 11:56:02;;;;;;;5.57;4.53;;;;;;;24.83;70.41;97769.91;4890997;29;20376;-73
2023/08/25 11:58:29;;;;;;;7.70;4.45;;;;;;;24.80;70.77;97776.09;4860178;29;20044;-72
2023/08/25 12:01:07;;;;;;;6.70;4.32;;;;;;;24.64;71.26;97806.28;4878369;29;20029;-72
2023/08/25 12:03:34;;;;;;;6.63;4.93;;;;;;;24.51;72.25;97823.91;4894616;29;20068;-73
2023/08/25 12:06:04;;;;;;;6.68;4.50;;;;;;;24.50;72.30;97834.16;4848067;29;20024;-72
2023/08/25 12:08:30;;;;;;;8.00;4.70;;;;;;;24.46;72.86;97805.69;4879072;29;20040;-72
2023/08/25 12:10:55;;;;;;;8.95;4.57;;;;;;;24.46;72.71;97810.38;4880192;29;20033;-72
2023/08/25 12:13:25;;;;;;;5.75;4.60;;;;;;;24.32;72.74;97805.22;4878838;29;20045;-72
2023/08/25 12:15:53;;;;;;;10.73;5.43;;;;;;;24.35;73.15;97815.56;4890710;29;20394;-72
2023/08/25 12:18:20;;;;;;;8.73;5.60;;;;;;;24.21;73.07;97804.06;4886064;29;20037;-71
2023/08/25 12:20:45;;;;;;;8.82;4.97;;;;;;;24.19;72.93;97800.84;4881872;29;20029;-73
2023/08/25 12:23:11;;;;;;;8.27;5.45;;;;;;;24.24;73.62;97808.91;4894182;29;20064;-71
2023/08/25 12:25:36;;;;;;;6.13;4.75;;;;;;;24.27;73.26;97791.66;4879841;29;20563;-72
2023/08/25 12:28:01;;;;;;;9.85;5.28;;;;;;;24.29;72.68;97783.91;4884301;29;20456;-74
2023/08/25 12:30:29;;;;;;;6.65;4.45;;;;;;;24.07;73.49;97803.59;4873982;29;20044;-71
2023/08/25 12:32:54;;;;;;;16.95;7.55;;;;;;;24.11;73.60;97810.00;4869892;29;20036;-71
2023/08/25 12:35:22;;;;;;;7.00;4.78;;;;;;;24.18;73.95;97821.25;4881819;29;20077;-74
2023/08/25 12:37:47;;;;;;;8.35;4.40;;;;;;;24.17;73.79;97833.44;4894027;29;20088;-71
2023/08/25 12:40:13;;;;;;;6.28;4.18;;;;;;;24.08;73.35;97831.91;4860230;29;20041;-72
2023/08/25 12:42:38;;;;;;;5.40;4.18;;;;;;;24.16;72.90;97842.00;4871058;29;20093;-72
2023/08/25 12:45:05;;;;;;;7.72;4.00;;;;;;;24.14;72.67;97825.84;4878638;29;20025;-71
2023/08/25 12:47:30;;;;;;;4.18;3.75;;;;;;;24.22;72.14;97816.69;4868308;29;20392;-72
2023/08/25 12:49:55;;;;;;;5.72;4.22;;;;;;;24.61;71.76;97813.28;4887704;29;20040;-71
2023/08/25 12:52:21;;;;;;;6.65;4.38;;;;;;;24.96;71.25;97816.38;4871051;29;20094;-71
2023/08/25 12:54:46;;;;;;;4.97;4.22;;;;;;;25.56;70.05;97800.81;4881368;29;20036;-74
2023/08/25 12:57:12;;;;;;;7.53;4.22;;;;;;;25.93;68.63;97814.06;4869333;29;20057;-72
2023/08/25 12:59:38;;;;;;;6.38;4.10;;;;;;;26.11;68.21;97802.75;4891730;29;20052;-71
2023/08/25 13:02:04;;;;;;;7.45;3.78;;;;;;;26.43;66.33;97804.34;4879224;29;20049;-72
2023/08/25 13:04:29;;;;;;;5.30;3.60;;;;;;;27.14;64.39;97802.09;4905952;29;20025;-71
2023/08/25 13:06:54;;;;;;;5.00;3.78;;;;;;;28.12;62.18;97785.13;4867850;29;20045;-72
2023/08/25 13:09:20;;;;;;;5.20;3.75;;;;;;;29.21;58.93;97764.69;4891298;29;20029;-72
2023/08/25 13:11:46;;;;;;;4.38;3.65;;;;;;;29.74;56.03;97756.97;4878380;29;20081;-71
2023/08/25 13:14:11;;;;;;;4.95;3.45;;;;;;;30.37;53.55;97756.84;4889883;29;20029;-72
2023/08/25 13:16:37;;;;;;;3.22;2.83;;;;;;;30.57;54.05;97763.78;4870277;29;20041;-73
2023/08/25 13:19:02;;;;;;;4.70;3.33;;;;;;;30.37;53.20;97765.19;4890490;29;20032;-72
2023/08/25 13:21:28;;;;;;;4.43;3.10;;;;;;;30.42;53.65;97768.41;4878700;29;20037;-72
2023/08/25 13:23:53;;;;;;;4.45;3.20;;;;;;;30.81;51.95;97784.59;4866521;29;20451;-72
2023/08/25 13:26:18;;;;;;;5.43;3.30;;;;;;;31.53;49.69;97760.38;4883873;29;20040;-72
2023/08/25 13:28:44;;;;;;;4.70;2.80;;;;;;;31.59;49.00;97752.44;4877543;29;20479;-72
2023/08/25 13:31:09;;;;;;;6.15;2.92;;;;;;;30.69;50.64;97755.91;4884125;29;20050;-74
2023/08/25 13:33:34;;;;;;;5.22;3.20;;;;;;;30.20;51.86;97755.47;4889421;29;20028;-73
2023/08/25 13:36:00;;;;;;;5.45;2.88;;;;;;;30.75;51.13;97756.34;4878666;29;20037;-72
2023/08/25 13:38:25;;;;;;;5.25;3.22;;;;;;;30.83;51.53;97759.97;4879129;29;20554;-73
2023/08/25 13:40:51;;;;;;;4.07;3.00;;;;;;;30.64;51.13;97725.69;4878607;29;20089;-72
2023/08/25 13:43:16;;;;;;;4.80;2.80;;;;;;;30.60;50.47;97746.31;4876351;29;20029;-73
2023/08/25 13:45:41;;;;;;;3.42;2.80;;;;;;;29.86;51.59;97751.19;4878523;29;20041;-74
2023/08/25 13:48:08;;;;;;;4.10;2.78;;;;;;;29.14;54.24;97767.34;4892910;29;20073;-73
2023/08/25 13:50:33;;;;;;;4.07;2.88;;;;;;;28.62;55.76;97760.66;4884639;29;20041;-73
2023/08/25 13:52:58;;;;;;;4.68;2.80;;;;;;;28.35;56.72;97755.44;4887943;29;20444;-72
2023/08/25 13:55:24;;;;;;;4.43;3.03;;;;;;;28.05;56.79;97771.97;4892719;29;20049;-73
2023/08/25 13:57:49;;;;;;;3.78;2.97;;;;;;;27.83;57.43;97758.84;4892741;29;20029;-72
2023/08/25 14:00:16;;;;;;;4.82;2.97;;;;;;;27.90;57.54;97756.22;4869393;29;20037;-73
2023/08/25 14:02:43;;;;;;;4.95;2.85;;;;;;;27.88;57.95;97769.63;4876025;29;20391;-72
2023/08/25 14:05:08;;;;;;;5.68;2.60;;;;;;;27.91;58.19;97766.13;4887022;29;20040;-72
2023/08/25 14:07:35;;;;;;;4.60;2.80;;;;;;;27.68;59.02;97749.47;4890029;29;20100;-71
2023/08/25 14:10:02;;;;;;;10.07;2.80;;;;;;;27.65;59.37;97760.50;4882830;29;20041;-73
2023/08/25 14:12:27;;;;;;;4.38;3.10;;;;;;;27.40;59.67;97760.78;4879428;29;20029;-72
2023/08/25 14:14:52;;;;;;;3.85;3.00;;;;;;;27.20;59.79;97750.88;4868265;29;20033;-72
2023/08/25 14:17:18;;;;;;;6.47;3.40;;;;;;;27.17;60.64;97742.50;4889010;29;20028;-71
2023/08/25 14:19:44;;;;;;;6.03;3.05;;;;;;;26.87;60.83;97724.88;4877820;29;20092;-74
2023/08/25 14:22:09;;;;;;;5.85;3.40;;;;;;;26.91;60.81;97729.31;4891392;29;20029;-74
2023/08/25 14:24:36;;;;;;;5.15;3.15;;;;;;;26.75;61.16;97742.38;4877842;29;20041;-73
2023/08/25 14:27:01;;;;;;;6.13;3.25;;;;;;;26.56;61.68;97742.28;4892122;29;20071;-72
2023/08/25 14:29:28;;;;;;;5.40;3.50;;;;;;;26.55;61.91;97755.34;4868967;29;20073;-72
2023/08/25 14:31:53;;;;;;;3.20;2.90;;;;;;;26.59;62.22;97736.06;4885593;29;20036;-72
2023/08/25 14:34:21;;;;;;;3.25;2.92;;;;;;;26.53;61.95;97707.13;4882677;29;20041;-72
2023/08/25 14:36:46;;;;;;;3.38;3.08;;;;;;;26.56;62.13;97709.16;4879695;29;20044;-71
2023/08/25 14:39:12;;;;;;;4.93;3.15;;;;;;;26.55;62.16;97707.56;4882852;29;20034;-72
2023/08/25 14:41:38;;;;;;;6.72;3.45;;;;;;;26.60;61.95;97710.06;4885737;29;20033;-72
2023/08/25 14:44:03;;;;;;;6.97;3.60;;;;;;;26.52;62.29;97700.00;4883028;29;20073;-73
2023/08/25 14:46:37;;;;;;;3.90;2.90;;;;;;;26.49;62.18;97709.00;4873174;29;20055;-73
2023/08/25 14:49:03;;;;;;;6.03;3.50;;;;;;;26.30;62.87;97711.72;4868457;29;20120;-73
2023/08/25 14:51:28;;;;;;;4.95;2.80;;;;;;;26.11;63.44;97726.25;4877218;29;20112;-73
2023/08/25 14:53:53;;;;;;;4.55;3.28;;;;;;;25.94;63.69;97716.34;4877280;29;20483;-74
2023/08/25 14:56:19;;;;;;;4.72;3.35;;;;;;;25.89;64.36;97730.41;4877291;29;20032;-74
2023/08/25 14:58:44;;;;;;;4.55;3.25;;;;;;;25.89;64.21;97746.94;4877226;29;20045;-73
2023/08/25 15:01:10;;;;;;;4.60;3.15;;;;;;;25.90;64.24;97737.53;4877099;29;20396;-73
2023/08/25 15:03:35;;;;;;;5.28;3.05;;;;;;;26.01;64.47;97743.31;4886623;29;20040;-73
2023/08/25 15:06:01;;;;;;;5.63;4.10;;;;;;;25.89;64.28;97746.94;4863536;29;20395;-73
2023/08/25 15:08:28;;;;;;;4.60;3.42;;;;;;;25.89;64.65;97758.00;4891479;29;20108;-73
2023/08/25 15:10:53;;;;;;;4.75;3.83;;;;;;;25.88;64.74;97772.94;4891330;29;20544;-73
2023/08/25 15:13:19;;;;;;;4.28;3.35;;;;;;;25.79;64.83;97752.22;4891373;29;20052;-73
2023/08/25 15:15:45;;;;;;;3.95;3.50;;;;;;;25.80;64.98;97749.09;4877220;29;20029;-73
2023/08/25 15:18:10;;;;;;;4.50;3.20;;;;;;;25.63;64.92;97727.34;4877219;29;20072;-72
2023/08/25 15:20:36;;;;;;;5.63;3.50;;;;;;;25.80;64.94;97749.09;4891636;29;20040;-73
2023/08/25 15:23:03;;;;;;;3.85;3.50;;;;;;;25.83;64.89;97742.88;4891212;29;20143;-73
2023/08/25 15:25:29;;;;;;;5.65;3.60;;;;;;;25.91;64.31;97738.31;4891554;29;20247;-73